Aeroporto :
LOGIN :

Iscrizione | Disclaimer

   EN    FR    IT 

 










Sommario :    VFR   VFR Marginale   IFR   IFR Intensivo   IFR Molto Intensivo
Visibilità : 
Base nubi : 
>= 8 km
>= 3000ft
5 / 8 km
1000 / 3000 ft
1500m / 5 km
500 / 1000 ft
800 / 1500m
200 / 500 ft
< 800m
< 200 ft
Simboli :   Temporali  Nebbia  Neve Forte  Precipitazioni Forti  Vento > 20 kt
SIGMETs :   Varie  Temporali  Ghiacco  Turbolenza  Onda orograficha  Ceneri Vulcaniche






- Altitudine del aeroporto : 33 ft
- Codice IATA : PLQ


EYPA - Palanga

ULTIMO METAR :
  • 280720Z 14011KT 3200 BR OVC003 00/00 Q1000 R19/1///95

METARs OBSOLETI :
  • 280650Z 14011KT 2500 BR OVC003 00/00 Q1001 R19/1///95
  • 280620Z 15012KT 3200 BR OVC003 00/00 Q1001 R19/1///95
  • 280550Z 15011KT 2800 BR OVC002 00/00 Q1001 R19/1///95
  • 280520Z 15011KT 2500 BR OVC002 00/00 Q1002 R19/1///95
  • 280450Z 15011KT 2500 BR OVC002 00/00 Q1002 R19/1///95

TAF TAF EYPA
Valido dal 28 a 06 ore il 29 a 06 ore UTC


280511Z 2806/2906 15012KT 3000 BR OVC002
TEMPO 2806/2810 0600 DZ FG
BECMG 2810/2811 RA
TEMPO 2814/2820 1500
BECMG 2820/2822 5000 BR OVC005
TEMPO 2900/2906 1500 BKN002



MetMap, La meteo Aeronautica in un colpo d'occhio ! - Copyright ORBIFLY Dicembre 2007 - Disclaimer

ORBIFLY MET'MAP TEAM :

Programmazione e sviluppo : Alexandra Zaïnal
Concezione : Baudouin d'Aumeries
Aiuto per la programmazione : Marc-Olivier Méhu
Supporto tecnico e logistico : Manuel Goepfert
Aiuto per la traduzione : Arnaldo La Scala

Contatto : metmap@orbifly.com




FONTI E CREDITI :

   NOAA